sensor_id;sensor_type;location;lat;lon;timestamp;pressure;altitude;pressure_sealevel;temperature;humidity
81509;BME280;70930;52.412;13.554;2024-01-15T00:01:48;98929.16;;;1.48;91.24
81509;BME280;70930;52.412;13.554;2024-01-15T00:04:40;98923.75;;;1.41;91.56
81509;BME280;70930;52.412;13.554;2024-01-15T00:07:26;98927.84;;;1.36;91.66
81509;BME280;70930;52.412;13.554;2024-01-15T00:10:12;98922.44;;;1.29;92.64
81509;BME280;70930;52.412;13.554;2024-01-15T00:12:58;98916.56;;;1.27;92.57
81509;BME280;70930;52.412;13.554;2024-01-15T00:15:44;98910.16;;;1.21;92.88
81509;BME280;70930;52.412;13.554;2024-01-15T00:18:29;98893.13;;;1.09;93.78
81509;BME280;70930;52.412;13.554;2024-01-15T00:21:15;98898.56;;;1.16;93.70
81509;BME280;70930;52.412;13.554;2024-01-15T00:24:01;98900.84;;;1.11;94.14
81509;BME280;70930;52.412;13.554;2024-01-15T00:26:47;98879.91;;;1.03;95.21
81509;BME280;70930;52.412;13.554;2024-01-15T00:29:32;98887.13;;;1.17;94.25
81509;BME280;70930;52.412;13.554;2024-01-15T00:32:18;98884.34;;;1.10;94.36
81509;BME280;70930;52.412;13.554;2024-01-15T00:35:05;98866.84;;;1.11;93.54
81509;BME280;70930;52.412;13.554;2024-01-15T00:37:51;98866.84;;;1.11;93.99
81509;BME280;70930;52.412;13.554;2024-01-15T00:40:37;98864.38;;;1.09;94.16
81509;BME280;70930;52.412;13.554;2024-01-15T00:43:23;98867.97;;;1.00;95.05
81509;BME280;70930;52.412;13.554;2024-01-15T00:46:09;98844.13;;;1.03;94.83
81509;BME280;70930;52.412;13.554;2024-01-15T00:48:54;98836.13;;;1.05;94.00
81509;BME280;70930;52.412;13.554;2024-01-15T00:51:40;98841.03;;;1.08;94.01
81509;BME280;70930;52.412;13.554;2024-01-15T00:54:26;98839.41;;;1.15;93.08
81509;BME280;70930;52.412;13.554;2024-01-15T00:57:12;98833.69;;;1.03;93.59
81509;BME280;70930;52.412;13.554;2024-01-15T00:59:58;98834.50;;;1.12;92.86
81509;BME280;70930;52.412;13.554;2024-01-15T01:02:44;98831.22;;;1.10;92.80
81509;BME280;70930;52.412;13.554;2024-01-15T01:05:29;98835.00;;;1.07;93.02
81509;BME280;70930;52.412;13.554;2024-01-15T01:08:15;98830.06;;;1.04;93.04
81509;BME280;70930;52.412;13.554;2024-01-15T01:11:03;98823.38;;;1.02;92.75
81509;BME280;70930;52.412;13.554;2024-01-15T01:13:49;98818.81;;;1.12;92.51
81509;BME280;70930;52.412;13.554;2024-01-15T01:16:35;98825.16;;;1.01;92.67
81509;BME280;70930;52.412;13.554;2024-01-15T01:19:26;98819.94;;;1.09;92.45
81509;BME280;70930;52.412;13.554;2024-01-15T01:22:12;98805.75;;;1.04;92.48
81509;BME280;70930;52.412;13.554;2024-01-15T01:24:58;98805.41;;;0.98;93.17
81509;BME280;70930;52.412;13.554;2024-01-15T01:27:43;98812.44;;;1.06;93.03
81509;BME280;70930;52.412;13.554;2024-01-15T01:30:29;98811.59;;;1.06;93.02
81509;BME280;70930;52.412;13.554;2024-01-15T01:33:15;98822.22;;;1.04;93.30
81509;BME280;70930;52.412;13.554;2024-01-15T01:36:07;98818.00;;;1.03;93.20
81509;BME280;70930;52.412;13.554;2024-01-15T01:38:58;98807.19;;;0.90;92.91
81509;BME280;70930;52.412;13.554;2024-01-15T01:41:44;98825.31;;;0.91;94.53
81509;BME280;70930;52.412;13.554;2024-01-15T01:44:29;98814.88;;;0.91;94.36
81509;BME280;70930;52.412;13.554;2024-01-15T01:47:18;98822.22;;;0.88;95.13
81509;BME280;70930;52.412;13.554;2024-01-15T01:50:07;98817.47;;;0.83;95.38
81509;BME280;70930;52.412;13.554;2024-01-15T01:52:53;98817.63;;;0.82;95.82
81509;BME280;70930;52.412;13.554;2024-01-15T01:55:39;98809.78;;;0.82;96.05
81509;BME280;70930;52.412;13.554;2024-01-15T01:58:28;98814.66;;;0.77;95.92
81509;BME280;70930;52.412;13.554;2024-01-15T02:01:15;98807.16;;;0.73;96.07
81509;BME280;70930;52.412;13.554;2024-01-15T02:04:01;98802.22;;;0.70;97.07
81509;BME280;70930;52.412;13.554;2024-01-15T02:06:48;98815.78;;;0.66;97.28
81509;BME280;70930;52.412;13.554;2024-01-15T02:09:34;98805.81;;;0.61;96.14
81509;BME280;70930;52.412;13.554;2024-01-15T02:12:20;98806.97;;;0.67;95.67
81509;BME280;70930;52.412;13.554;2024-01-15T02:15:06;98808.13;;;0.72;95.93
81509;BME280;70930;52.412;13.554;2024-01-15T02:18:04;98805.81;;;0.69;95.85
81509;BME280;70930;52.412;13.554;2024-01-15T02:20:50;98801.59;;;0.77;95.14
81509;BME280;70930;52.412;13.554;2024-01-15T02:23:36;98809.16;;;0.88;94.27
81509;BME280;70930;52.412;13.554;2024-01-15T02:26:22;98809.28;;;0.78;94.59
81509;BME280;70930;52.412;13.554;2024-01-15T02:29:08;98806.34;;;0.89;93.80
81509;BME280;70930;52.412;13.554;2024-01-15T02:31:58;98805.38;;;0.90;93.47
81509;BME280;70930;52.412;13.554;2024-01-15T02:34:43;98801.28;;;0.80;92.64
81509;BME280;70930;52.412;13.554;2024-01-15T02:37:29;98796.88;;;0.72;92.84
81509;BME280;70930;52.412;13.554;2024-01-15T02:40:15;98810.59;;;0.82;92.19
81509;BME280;70930;52.412;13.554;2024-01-15T02:43:00;98801.09;;;0.73;92.13
81509;BME280;70930;52.412;13.554;2024-01-15T02:45:46;98784.59;;;0.64;91.87
81509;BME280;70930;52.412;13.554;2024-01-15T02:48:34;98788.03;;;0.65;91.54
81509;BME280;70930;52.412;13.554;2024-01-15T02:51:20;98789.84;;;0.72;90.32
81509;BME280;70930;52.412;13.554;2024-01-15T02:54:06;98782.00;;;0.64;91.33
81509;BME280;70930;52.412;13.554;2024-01-15T02:56:52;98782.50;;;0.68;91.12
81509;BME280;70930;52.412;13.554;2024-01-15T02:59:37;98777.28;;;0.76;90.72
81509;BME280;70930;52.412;13.554;2024-01-15T03:02:23;98779.72;;;0.69;90.81
81509;BME280;70930;52.412;13.554;2024-01-15T03:05:09;98769.56;;;0.58;90.10
81509;BME280;70930;52.412;13.554;2024-01-15T03:07:55;98784.13;;;0.77;90.20
81509;BME280;70930;52.412;13.554;2024-01-15T03:10:41;98768.13;;;0.72;90.03
81509;BME280;70930;52.412;13.554;2024-01-15T03:13:27;98780.38;;;0.80;89.63
81509;BME280;70930;52.412;13.554;2024-01-15T03:16:13;98786.44;;;0.80;89.02
81509;BME280;70930;52.412;13.554;2024-01-15T03:18:59;98771.38;;;0.74;89.52
81509;BME280;70930;52.412;13.554;2024-01-15T03:21:44;98767.97;;;0.82;89.10
81509;BME280;70930;52.412;13.554;2024-01-15T03:24:32;98765.84;;;0.85;89.27
81509;BME280;70930;52.412;13.554;2024-01-15T03:27:17;98772.19;;;0.74;89.07
81509;BME280;70930;52.412;13.554;2024-01-15T03:30:03;98764.53;;;0.73;88.93
81509;BME280;70930;52.412;13.554;2024-01-15T03:32:49;98757.19;;;0.77;88.56
81509;BME280;70930;52.412;13.554;2024-01-15T03:35:35;98755.22;;;0.70;88.00
81509;BME280;70930;52.412;13.554;2024-01-15T03:38:22;98758.00;;;0.77;88.61
81509;BME280;70930;52.412;13.554;2024-01-15T03:41:08;98769.94;;;0.80;88.48
81509;BME280;70930;52.412;13.554;2024-01-15T03:43:54;98765.03;;;0.77;88.08
81509;BME280;70930;52.412;13.554;2024-01-15T03:46:40;98760.94;;;0.74;88.49
81509;BME280;70930;52.412;13.554;2024-01-15T03:49:25;98762.44;;;0.85;87.54
81509;BME280;70930;52.412;13.554;2024-01-15T03:52:11;98756.53;;;0.74;88.19
81509;BME280;70930;52.412;13.554;2024-01-15T03:54:57;98759.81;;;0.77;87.88
81509;BME280;70930;52.412;13.554;2024-01-15T03:57:43;98736.13;;;0.78;87.74
81509;BME280;70930;52.412;13.554;2024-01-15T04:00:31;98742.34;;;0.85;87.10
81509;BME280;70930;52.412;13.554;2024-01-15T04:03:17;98734.81;;;0.90;87.04
81509;BME280;70930;52.412;13.554;2024-01-15T04:06:06;98731.06;;;0.85;87.26
81509;BME280;70930;52.412;13.554;2024-01-15T04:08:52;98721.13;;;0.88;87.14
81509;BME280;70930;52.412;13.554;2024-01-15T04:11:38;98725.34;;;0.89;87.05
81509;BME280;70930;52.412;13.554;2024-01-15T04:14:23;98717.69;;;0.80;87.53
81509;BME280;70930;52.412;13.554;2024-01-15T04:17:09;98709.34;;;0.84;87.40
81509;BME280;70930;52.412;13.554;2024-01-15T04:19:55;98694.00;;;0.89;87.44
81509;BME280;70930;52.412;13.554;2024-01-15T04:22:44;98702.34;;;0.85;86.93
81509;BME280;70930;52.412;13.554;2024-01-15T04:25:32;98717.69;;;0.88;87.62
81509;BME280;70930;52.412;13.554;2024-01-15T04:28:17;98693.81;;;0.74;87.19
81509;BME280;70930;52.412;13.554;2024-01-15T04:31:03;98703.81;;;0.87;86.52
81509;BME280;70930;52.412;13.554;2024-01-15T04:33:49;98693.69;;;0.84;87.09
81509;BME280;70930;52.412;13.554;2024-01-15T04:36:41;98700.72;;;0.84;86.90
81509;BME280;70930;52.412;13.554;2024-01-15T04:39:29;98686.16;;;0.81;86.72
81509;BME280;70930;52.412;13.554;2024-01-15T04:42:14;98702.34;;;0.85;86.48
81509;BME280;70930;52.412;13.554;2024-01-15T04:45:00;98705.13;;;0.91;86.77
81509;BME280;70930;52.412;13.554;2024-01-15T04:47:46;98696.78;;;0.88;85.48
81509;BME280;70930;52.412;13.554;2024-01-15T04:50:31;98700.88;;;0.98;86.09
81509;BME280;70930;52.412;13.554;2024-01-15T04:53:17;98698.09;;;1.00;85.38
81509;BME280;70930;52.412;13.554;2024-01-15T04:56:03;98684.72;;;0.95;85.49
81509;BME280;70930;52.412;13.554;2024-01-15T04:58:49;98672.44;;;0.95;85.46
81509;BME280;70930;52.412;13.554;2024-01-15T05:01:35;98671.78;;;0.93;85.44
81509;BME280;70930;52.412;13.554;2024-01-15T05:04:21;98662.63;;;0.89;85.95
81509;BME280;70930;52.412;13.554;2024-01-15T05:07:06;98673.59;;;0.93;85.47
81509;BME280;70930;52.412;13.554;2024-01-15T05:09:53;98669.66;;;0.89;85.53
81509;BME280;70930;52.412;13.554;2024-01-15T05:12:39;98677.81;;;0.86;85.32
81509;BME280;70930;52.412;13.554;2024-01-15T05:15:25;98695.16;;;0.87;85.11
81509;BME280;70930;52.412;13.554;2024-01-15T05:18:11;98679.94;;;0.90;84.98
81509;BME280;70930;52.412;13.554;2024-01-15T05:20:57;98668.34;;;0.93;86.53
81509;BME280;70930;52.412;13.554;2024-01-15T05:23:42;98679.94;;;0.90;87.80
81509;BME280;70930;52.412;13.554;2024-01-15T05:26:28;98681.75;;;0.90;87.74
81509;BME280;70930;52.412;13.554;2024-01-15T05:29:14;98688.63;;;0.91;88.70
81509;BME280;70930;52.412;13.554;2024-01-15T05:32:00;98693.84;;;0.91;88.61
81509;BME280;70930;52.412;13.554;2024-01-15T05:34:46;98688.78;;;0.89;87.99
81509;BME280;70930;52.412;13.554;2024-01-15T05:37:31;98665.09;;;0.91;88.40
81509;BME280;70930;52.412;13.554;2024-01-15T05:40:17;98675.38;;;0.92;88.10
81509;BME280;70930;52.412;13.554;2024-01-15T05:43:03;98670.31;;;0.99;87.52
81509;BME280;70930;52.412;13.554;2024-01-15T05:45:49;98657.09;;;1.01;87.15
81509;BME280;70930;52.412;13.554;2024-01-15T05:48:34;98660.69;;;1.00;86.56
81509;BME280;70930;52.412;13.554;2024-01-15T05:51:20;98656.44;;;0.98;85.89
81509;BME280;70930;52.412;13.554;2024-01-15T05:54:06;98655.28;;;1.09;85.46
81509;BME280;70930;52.412;13.554;2024-01-15T05:56:51;98644.50;;;1.12;85.53
81509;BME280;70930;52.412;13.554;2024-01-15T05:59:37;98646.94;;;1.06;85.18
81509;BME280;70930;52.412;13.554;2024-01-15T06:02:23;98644.66;;;1.11;85.22
81509;BME280;70930;52.412;13.554;2024-01-15T06:05:08;98650.84;;;1.10;85.57
81509;BME280;70930;52.412;13.554;2024-01-15T06:07:54;98659.19;;;1.05;86.12
81509;BME280;70930;52.412;13.554;2024-01-15T06:10:40;98660.84;;;0.98;87.79
81509;BME280;70930;52.412;13.554;2024-01-15T06:13:26;98663.81;;;0.95;89.33
81509;BME280;70930;52.412;13.554;2024-01-15T06:16:13;98671.63;;;0.95;88.90
81509;BME280;70930;52.412;13.554;2024-01-15T06:19:00;98667.56;;;0.84;89.45
81509;BME280;70930;52.412;13.554;2024-01-15T06:21:46;98662.63;;;0.89;88.79
81509;BME280;70930;52.412;13.554;2024-01-15T06:24:31;98661.00;;;0.88;88.72
81509;BME280;70930;52.412;13.554;2024-01-15T06:27:17;98666.72;;;0.92;88.43
81509;BME280;70930;52.412;13.554;2024-01-15T06:30:04;98660.84;;;0.90;88.08
81509;BME280;70930;52.412;13.554;2024-01-15T06:32:49;98663.13;;;0.93;87.22
81509;BME280;70930;52.412;13.554;2024-01-15T06:35:36;98675.38;;;1.01;87.06
81509;BME280;70930;52.412;13.554;2024-01-15T06:38:23;98668.53;;;1.00;87.27
81509;BME280;70930;52.412;13.554;2024-01-15T06:41:10;98679.13;;;0.98;88.65
81509;BME280;70930;52.412;13.554;2024-01-15T06:43:56;98672.44;;;0.95;88.47
81509;BME280;70930;52.412;13.554;2024-01-15T06:46:42;98662.13;;;1.02;88.34
81509;BME280;70930;52.412;13.554;2024-01-15T06:49:32;98676.84;;;1.03;88.04
81509;BME280;70930;52.412;13.554;2024-01-15T06:52:17;98668.53;;;1.00;88.09
81509;BME280;70930;52.412;13.554;2024-01-15T06:55:04;98668.22;;;1.03;87.74
81509;BME280;70930;52.412;13.554;2024-01-15T06:57:51;98675.69;;;1.06;86.66
81509;BME280;70930;52.412;13.554;2024-01-15T07:00:37;98668.03;;;0.96;87.46
81509;BME280;70930;52.412;13.554;2024-01-15T07:03:23;98673.91;;;1.06;86.74
81509;BME280;70930;52.412;13.554;2024-01-15T07:06:09;98662.63;;;1.06;86.86
81509;BME280;70930;52.412;13.554;2024-01-15T07:08:55;98678.97;;;1.16;86.22
81509;BME280;70930;52.412;13.554;2024-01-15T07:11:44;98678.47;;;1.20;85.69
81509;BME280;70930;52.412;13.554;2024-01-15T07:14:30;98664.91;;;1.17;86.34
81509;BME280;70930;52.412;13.554;2024-01-15T07:17:16;98662.94;;;1.27;85.33
81509;BME280;70930;52.412;13.554;2024-01-15T07:20:02;98682.84;;;1.28;84.75
81509;BME280;70930;52.412;13.554;2024-01-15T07:22:51;98676.50;;;1.22;84.68
81509;BME280;70930;52.412;13.554;2024-01-15T07:25:36;98689.72;;;1.29;84.54
81509;BME280;70930;52.412;13.554;2024-01-15T07:28:22;98696.25;;;1.25;83.76
81509;BME280;70930;52.412;13.554;2024-01-15T07:31:08;98682.84;;;1.28;83.58
81509;BME280;70930;52.412;13.554;2024-01-15T07:33:54;98683.53;;;1.30;83.21
81509;BME280;70930;52.412;13.554;2024-01-15T07:36:40;98690.06;;;1.34;83.18
81509;BME280;70930;52.412;13.554;2024-01-15T07:39:26;98702.94;;;1.36;83.92
81509;BME280;70930;52.412;13.554;2024-01-15T07:42:11;98709.50;;;1.32;82.85
81509;BME280;70930;52.412;13.554;2024-01-15T07:44:57;98708.00;;;1.45;82.33
81509;BME280;70930;52.412;13.554;2024-01-15T07:47:43;98717.16;;;1.33;82.73
81509;BME280;70930;52.412;13.554;2024-01-15T07:50:30;98727.59;;;1.41;82.82
81509;BME280;70930;52.412;13.554;2024-01-15T07:53:16;98728.59;;;1.48;82.19
81509;BME280;70930;52.412;13.554;2024-01-15T07:56:02;98718.31;;;1.47;82.46
81509;BME280;70930;52.412;13.554;2024-01-15T07:58:48;98723.38;;;1.40;82.44
81509;BME280;70930;52.412;13.554;2024-01-15T08:01:34;98719.63;;;1.43;82.37
81509;BME280;70930;52.412;13.554;2024-01-15T08:04:19;98725.34;;;1.46;81.51
81509;BME280;70930;52.412;13.554;2024-01-15T08:07:08;98723.03;;;1.52;82.86
81509;BME280;70930;52.412;13.554;2024-01-15T08:09:53;98730.88;;;1.43;82.61
81509;BME280;70930;52.412;13.554;2024-01-15T08:12:39;98729.56;;;1.47;82.73
81509;BME280;70930;52.412;13.554;2024-01-15T08:15:25;98724.16;;;1.49;82.60
81509;BME280;70930;52.412;13.554;2024-01-15T08:18:11;98722.38;;;1.58;81.80
81509;BME280;70930;52.412;13.554;2024-01-15T08:20:56;98727.72;;;1.64;82.73
81509;BME280;70930;52.412;13.554;2024-01-15T08:23:45;98719.28;;;1.54;82.40
81509;BME280;70930;52.412;13.554;2024-01-15T08:26:31;98728.91;;;1.62;82.28
81509;BME280;70930;52.412;13.554;2024-01-15T08:29:20;98740.19;;;1.62;81.21
81509;BME280;70930;52.412;13.554;2024-01-15T08:32:07;98739.50;;;1.60;81.85
81509;BME280;70930;52.412;13.554;2024-01-15T08:34:52;98745.09;;;1.57;82.76
81509;BME280;70930;52.412;13.554;2024-01-15T08:37:38;98730.03;;;1.59;82.55
81509;BME280;70930;52.412;13.554;2024-01-15T08:40:24;98737.41;;;1.56;83.00
81509;BME280;70930;52.412;13.554;2024-01-15T08:43:10;98736.56;;;1.63;83.11
81509;BME280;70930;52.412;13.554;2024-01-15T08:45:55;98738.88;;;1.66;82.27
81509;BME280;70930;52.412;13.554;2024-01-15T08:48:41;98725.81;;;1.58;82.89
81509;BME280;70930;52.412;13.554;2024-01-15T08:51:27;98723.31;;;1.73;82.53
81509;BME280;70930;52.412;13.554;2024-01-15T08:54:13;98734.25;;;1.77;82.25
81509;BME280;70930;52.412;13.554;2024-01-15T08:56:59;98748.13;;;1.93;81.43
81509;BME280;70930;52.412;13.554;2024-01-15T08:59:45;98741.72;;;1.88;80.89
81509;BME280;70930;52.412;13.554;2024-01-15T09:02:30;98740.75;;;1.81;80.90
81509;BME280;70930;52.412;13.554;2024-01-15T09:05:22;98736.72;;;1.78;81.55
81509;BME280;70930;52.412;13.554;2024-01-15T09:08:08;98738.00;;;1.82;80.99
81509;BME280;70930;52.412;13.554;2024-01-15T09:10:53;98742.09;;;1.85;81.71
81509;BME280;70930;52.412;13.554;2024-01-15T09:13:39;98744.56;;;1.70;81.31
81509;BME280;70930;52.412;13.554;2024-01-15T09:16:27;98744.41;;;1.63;81.96
81509;BME280;70930;52.412;13.554;2024-01-15T09:19:13;98749.97;;;1.68;81.78
81509;BME280;70930;52.412;13.554;2024-01-15T09:21:59;98754.22;;;1.69;82.40
81509;BME280;70930;52.412;13.554;2024-01-15T09:24:45;98761.91;;;1.71;82.75
81509;BME280;70930;52.412;13.554;2024-01-15T09:27:31;98755.03;;;1.78;83.12
81509;BME280;70930;52.412;13.554;2024-01-15T09:30:18;98757.34;;;1.73;83.19
81509;BME280;70930;52.412;13.554;2024-01-15T09:33:03;98769.41;;;1.82;83.28
81509;BME280;70930;52.412;13.554;2024-01-15T09:35:50;98766.28;;;1.87;83.49
81509;BME280;70930;52.412;13.554;2024-01-15T09:38:38;98774.47;;;1.76;82.95
81509;BME280;70930;52.412;13.554;2024-01-15T09:41:25;98794.44;;;1.85;83.88
81509;BME280;70930;52.412;13.554;2024-01-15T09:44:14;98787.75;;;1.74;83.54
81509;BME280;70930;52.412;13.554;2024-01-15T09:47:00;98792.63;;;1.85;83.09
81509;BME280;70930;52.412;13.554;2024-01-15T09:49:46;98793.13;;;1.72;83.55
81509;BME280;70930;52.412;13.554;2024-01-15T09:52:34;98789.22;;;1.68;83.98
81509;BME280;70930;52.412;13.554;2024-01-15T09:55:21;98780.41;;;1.69;83.32
81509;BME280;70930;52.412;13.554;2024-01-15T09:58:07;98781.19;;;1.78;83.22
81509;BME280;70930;52.412;13.554;2024-01-15T10:00:54;98764.16;;;1.82;82.58
81509;BME280;70930;52.412;13.554;2024-01-15T10:03:39;98765.66;;;1.85;82.71
81509;BME280;70930;52.412;13.554;2024-01-15T10:06:26;98758.59;;;1.93;82.25
81509;BME280;70930;52.412;13.554;2024-01-15T10:09:15;98757.06;;;1.99;81.61
81509;BME280;70930;52.412;13.554;2024-01-15T10:12:01;98747.16;;;1.86;82.28
81509;BME280;70930;52.412;13.554;2024-01-15T10:14:47;98762.16;;;2.01;82.50
81509;BME280;70930;52.412;13.554;2024-01-15T10:17:32;98760.19;;;2.03;81.59
81509;BME280;70930;52.412;13.554;2024-01-15T10:20:18;98765.22;;;2.04;82.08
81509;BME280;70930;52.412;13.554;2024-01-15T10:23:04;98755.75;;;2.03;81.74
81509;BME280;70930;52.412;13.554;2024-01-15T10:25:50;98759.69;;;1.99;82.13
81509;BME280;70930;52.412;13.554;2024-01-15T10:28:39;98749.53;;;2.04;82.10
81509;BME280;70930;52.412;13.554;2024-01-15T10:31:30;98762.78;;;2.03;82.26
81509;BME280;70930;52.412;13.554;2024-01-15T10:34:16;98728.13;;;2.01;81.73
81509;BME280;70930;52.412;13.554;2024-01-15T10:37:03;98747.09;;;2.03;81.78
81509;BME280;70930;52.412;13.554;2024-01-15T10:39:49;98753.44;;;2.16;81.32
81509;BME280;70930;52.412;13.554;2024-01-15T10:42:35;98744.72;;;2.24;80.92
81509;BME280;70930;52.412;13.554;2024-01-15T10:45:21;98749.81;;;2.17;79.62
81509;BME280;70930;52.412;13.554;2024-01-15T10:48:08;98758.50;;;2.18;81.03
81509;BME280;70930;52.412;13.554;2024-01-15T10:50:54;98753.44;;;2.16;80.82
81509;BME280;70930;52.412;13.554;2024-01-15T10:53:40;98740.22;;;2.02;81.24
81509;BME280;70930;52.412;13.554;2024-01-15T10:56:27;98751.50;;;2.02;81.40
81509;BME280;70930;52.412;13.554;2024-01-15T10:59:13;98744.59;;;2.17;80.69
81509;BME280;70930;52.412;13.554;2024-01-15T11:01:59;98737.41;;;2.11;80.00
81509;BME280;70930;52.412;13.554;2024-01-15T11:04:45;98730.34;;;2.12;79.68
81509;BME280;70930;52.412;13.554;2024-01-15T11:07:31;98734.69;;;2.28;80.13
81509;BME280;70930;52.412;13.554;2024-01-15T11:10:42;98731.59;;;2.32;80.20
81509;BME280;70930;52.412;13.554;2024-01-15T11:16:17;98724.88;;;2.30;79.34
81509;BME280;70930;52.412;13.554;2024-01-15T11:19:05;98746.88;;;2.52;78.45
81509;BME280;70930;52.412;13.554;2024-01-15T11:21:53;98747.31;;;2.63;77.46
81509;BME280;70930;52.412;13.554;2024-01-15T11:24:40;98747.13;;;2.65;78.03
81509;BME280;70930;52.412;13.554;2024-01-15T11:27:42;98743.38;;;2.59;78.97
81509;BME280;70930;52.412;13.554;2024-01-15T11:30:28;98740.50;;;2.46;79.60
81509;BME280;70930;52.412;13.554;2024-01-15T11:33:34;98750.41;;;2.36;79.96
81509;BME280;70930;52.412;13.554;2024-01-15T11:36:20;98738.28;;;2.35;80.31
81509;BME280;70930;52.412;13.554;2024-01-15T11:42:13;98761.72;;;2.28;81.24
81509;BME280;70930;52.412;13.554;2024-01-15T11:44:59;98764.78;;;2.32;81.31
81509;BME280;70930;52.412;13.554;2024-01-15T11:48:21;98768.41;;;2.31;81.29
81509;BME280;70930;52.412;13.554;2024-01-15T11:51:11;98775.50;;;2.22;82.49
81509;BME280;70930;52.412;13.554;2024-01-15T11:54:01;98770.25;;;2.22;82.71
81509;BME280;70930;52.412;13.554;2024-01-15T11:56:50;98783.25;;;1.99;83.37
81509;BME280;70930;52.412;13.554;2024-01-15T11:59:36;98769.38;;;1.90;84.65
81509;BME280;70930;52.412;13.554;2024-01-15T12:02:23;98766.28;;;1.87;84.89
81509;BME280;70930;52.412;13.554;2024-01-15T12:05:09;98778.53;;;1.94;84.09
81509;BME280;70930;52.412;13.554;2024-01-15T12:07:55;98757.78;;;1.85;84.17
81509;BME280;70930;52.412;13.554;2024-01-15T12:10:41;98769.72;;;1.87;84.68
81509;BME280;70930;52.412;13.554;2024-01-15T12:13:27;98776.72;;;1.95;84.28
81509;BME280;70930;52.412;13.554;2024-01-15T12:16:13;98773.16;;;1.80;84.14
81509;BME280;70930;52.412;13.554;2024-01-15T12:18:59;98772.34;;;1.79;84.97
81509;BME280;70930;52.412;13.554;2024-01-15T12:21:45;98784.47;;;1.72;85.14
81509;BME280;70930;52.412;13.554;2024-01-15T12:24:32;98789.53;;;1.74;85.26
81509;BME280;70930;52.412;13.554;2024-01-15T12:27:18;98788.56;;;1.75;84.91
81509;BME280;70930;52.412;13.554;2024-01-15T12:30:04;98785.44;;;1.79;84.36
81509;BME280;70930;52.412;13.554;2024-01-15T12:32:50;98786.09;;;1.81;84.47
81509;BME280;70930;52.412;13.554;2024-01-15T12:35:36;98783.47;;;1.89;84.24
81509;BME280;70930;52.412;13.554;2024-01-15T12:38:22;98794.78;;;1.74;84.13
81509;BME280;70930;52.412;13.554;2024-01-15T12:41:08;98781.19;;;1.78;83.17
81509;BME280;70930;52.412;13.554;2024-01-15T12:43:53;98793.13;;;1.72;83.69
81509;BME280;70930;52.412;13.554;2024-01-15T12:46:39;98774.81;;;1.72;83.63
81509;BME280;70930;52.412;13.554;2024-01-15T12:49:25;98785.13;;;1.66;82.82
81509;BME280;70930;52.412;13.554;2024-01-15T12:52:11;98790.34;;;1.74;83.17
81509;BME280;70930;52.412;13.554;2024-01-15T12:54:57;98788.88;;;1.80;83.33
81509;BME280;70930;52.412;13.554;2024-01-15T12:57:42;98797.72;;;1.70;83.66
81509;BME280;70930;52.412;13.554;2024-01-15T13:00:28;98803.75;;;1.71;84.46
81509;BME280;70930;52.412;13.554;2024-01-15T13:03:14;98804.28;;;1.66;85.72
81509;BME280;70930;52.412;13.554;2024-01-15T13:06:00;98799.38;;;1.55;87.42
81509;BME280;70930;52.412;13.554;2024-01-15T13:08:45;98814.41;;;1.53;87.46
81509;BME280;70930;52.412;13.554;2024-01-15T13:11:32;98814.56;;;1.52;87.96
81509;BME280;70930;52.412;13.554;2024-01-15T13:14:18;98825.34;;;1.57;87.28
81509;BME280;70930;52.412;13.554;2024-01-15T13:17:04;98819.31;;;1.56;87.40
81509;BME280;70930;52.412;13.554;2024-01-15T13:19:50;98817.50;;;1.57;86.37
81509;BME280;70930;52.412;13.554;2024-01-15T13:22:38;98828.63;;;1.59;87.05
81509;BME280;70930;52.412;13.554;2024-01-15T13:25:25;98813.25;;;1.64;87.01
81509;BME280;70930;52.412;13.554;2024-01-15T13:28:11;98829.63;;;1.66;86.80
81509;BME280;70930;52.412;13.554;2024-01-15T13:30:56;98810.97;;;1.53;86.95
81509;BME280;70930;52.412;13.554;2024-01-15T13:33:42;98817.84;;;1.70;86.98
81509;BME280;70930;52.412;13.554;2024-01-15T13:36:28;98840.22;;;1.72;85.92
81509;BME280;70930;52.412;13.554;2024-01-15T13:39:14;98829.44;;;1.67;86.32
81509;BME280;70930;52.412;13.554;2024-01-15T13:41:59;98841.69;;;1.75;85.96
81509;BME280;70930;52.412;13.554;2024-01-15T13:44:45;98854.47;;;1.62;85.81
81509;BME280;70930;52.412;13.554;2024-01-15T13:47:32;98850.88;;;1.63;86.37
81509;BME280;70930;52.412;13.554;2024-01-15T13:50:18;98852.34;;;1.57;85.87
81509;BME280;70930;52.412;13.554;2024-01-15T13:53:04;98849.25;;;1.62;86.43
81509;BME280;70930;52.412;13.554;2024-01-15T13:55:50;98852.00;;;1.60;86.23
81509;BME280;70930;52.412;13.554;2024-01-15T13:58:35;98855.78;;;1.66;86.47
81509;BME280;70930;52.412;13.554;2024-01-15T14:01:21;98860.84;;;1.51;87.03
81509;BME280;70930;52.412;13.554;2024-01-15T14:04:07;98847.94;;;1.50;87.04
81509;BME280;70930;52.412;13.554;2024-01-15T14:06:55;98867.06;;;1.50;86.17
81509;BME280;70930;52.412;13.554;2024-01-15T14:09:41;98879.66;;;1.46;86.13
81509;BME280;70930;52.412;13.554;2024-01-15T14:12:27;98878.16;;;1.52;86.24
81509;BME280;70930;52.412;13.554;2024-01-15T14:15:15;98883.09;;;1.55;86.62
81509;BME280;70930;52.412;13.554;2024-01-15T14:18:01;98889.28;;;1.46;86.62
81509;BME280;70930;52.412;13.554;2024-01-15T14:20:47;98889.78;;;1.58;86.94
81509;BME280;70930;52.412;13.554;2024-01-15T14:23:33;98889.63;;;1.43;86.62
81509;BME280;70930;52.412;13.554;2024-01-15T14:26:19;98887.50;;;1.38;87.39
81509;BME280;70930;52.412;13.554;2024-01-15T14:29:05;98898.44;;;1.34;87.85
81509;BME280;70930;52.412;13.554;2024-01-15T14:31:51;98890.25;;;1.37;87.89
81509;BME280;70930;52.412;13.554;2024-01-15T14:34:37;98907.41;;;1.39;87.04
81509;BME280;70930;52.412;13.554;2024-01-15T14:37:23;98902.19;;;1.39;87.40
81509;BME280;70930;52.412;13.554;2024-01-15T14:40:09;98900.22;;;1.33;87.33
81509;BME280;70930;52.412;13.554;2024-01-15T14:42:58;98899.56;;;1.39;87.09
81509;BME280;70930;52.412;13.554;2024-01-15T14:45:43;98915.56;;;1.28;87.18
81509;BME280;70930;52.412;13.554;2024-01-15T14:48:30;98925.41;;;1.34;87.75